createdAt,value
2024-02-08T00:01:51.183Z,18.40
2024-02-08T00:04:24.174Z,18.17
2024-02-08T00:06:59.933Z,14.07
2024-02-08T00:09:32.452Z,20.40
2024-02-08T00:12:05.198Z,11.63
2024-02-08T00:14:35.274Z,17.47
2024-02-08T00:17:08.077Z,18.10
2024-02-08T00:19:41.117Z,17.17
2024-02-08T00:22:15.420Z,14.67
2024-02-08T00:24:50.998Z,18.33
2024-02-08T00:27:21.349Z,15.60
2024-02-08T00:29:54.326Z,15.00
2024-02-08T00:32:26.637Z,19.43
2024-02-08T00:35:10.377Z,11.77
2024-02-08T00:37:41.870Z,14.83
2024-02-08T00:40:14.321Z,13.93
2024-02-08T00:42:47.671Z,20.40
2024-02-08T00:45:23.659Z,17.50
2024-02-08T00:47:56.032Z,17.50
2024-02-08T00:50:31.324Z,17.80
2024-02-08T00:53:05.057Z,15.87
2024-02-08T00:55:35.370Z,14.50
2024-02-08T00:58:09.130Z,16.33
2024-02-08T01:00:42.065Z,14.80
2024-02-08T01:03:12.555Z,18.73
2024-02-08T01:05:50.318Z,19.37
2024-02-08T01:08:20.365Z,16.13
2024-02-08T01:10:52.991Z,18.37
2024-02-08T01:13:25.639Z,16.70
2024-02-08T01:15:55.927Z,15.10
2024-02-08T01:18:31.048Z,19.07
2024-02-08T01:21:03.946Z,19.13
2024-02-08T01:23:34.413Z,12.10
2024-02-08T01:26:05.501Z,13.83
2024-02-08T01:28:35.776Z,17.70
2024-02-08T01:31:06.424Z,13.00
2024-02-08T01:33:39.288Z,15.53
2024-02-08T01:36:12.672Z,22.87
2024-02-08T01:38:43.465Z,15.67
2024-02-08T01:41:18.313Z,15.03
2024-02-08T01:43:54.488Z,15.43
2024-02-08T01:46:27.016Z,16.13
2024-02-08T01:48:57.454Z,18.07
2024-02-08T01:51:32.720Z,15.60
2024-02-08T01:54:03.374Z,12.97
2024-02-08T01:56:35.504Z,10.60
2024-02-08T01:59:05.721Z,15.73
2024-02-08T02:01:35.889Z,15.17
2024-02-08T02:04:09.310Z,14.87
2024-02-08T02:06:42.809Z,16.27
2024-02-08T02:09:13.296Z,14.87
2024-02-08T02:11:48.244Z,9.60
2024-02-08T02:14:30.810Z,14.57
2024-02-08T02:17:13.996Z,22.67
2024-02-08T02:19:45.302Z,17.27
2024-02-08T02:22:23.768Z,13.63
2024-02-08T02:24:53.931Z,19.23
2024-02-08T02:27:24.126Z,14.13
2024-02-08T02:29:55.835Z,13.70
2024-02-08T02:32:32.439Z,9.57
2024-02-08T02:35:03.178Z,11.93
2024-02-08T02:37:36.514Z,11.10
2024-02-08T02:40:10.594Z,12.40
2024-02-08T02:42:40.866Z,13.97
2024-02-08T02:45:23.206Z,12.67
2024-02-08T02:47:55.229Z,12.00
2024-02-08T02:50:26.149Z,16.07
2024-02-08T02:53:04.343Z,12.40
2024-02-08T02:55:38.695Z,15.27
2024-02-08T02:58:11.283Z,15.27
2024-02-08T03:00:41.363Z,15.23
2024-02-08T03:03:14.190Z,11.57
2024-02-08T03:05:50.851Z,12.27
2024-02-08T03:08:26.436Z,17.50
2024-02-08T03:10:57.811Z,18.37
2024-02-08T03:13:27.967Z,12.83
2024-02-08T03:15:59.461Z,15.47
2024-02-08T03:18:30.590Z,12.80
2024-02-08T03:21:03.970Z,15.80
2024-02-08T03:23:39.770Z,19.30
2024-02-08T03:26:13.087Z,14.43
2024-02-08T03:28:47.846Z,15.77
2024-02-08T03:31:21.294Z,14.97
2024-02-08T03:33:57.620Z,17.17
2024-02-08T03:36:29.116Z,12.37
2024-02-08T03:39:05.487Z,15.37
2024-02-08T03:41:35.676Z,11.10
2024-02-08T03:44:09.001Z,26.37
2024-02-08T03:46:40.224Z,14.13
2024-02-08T03:49:14.021Z,13.20
2024-02-08T03:51:50.618Z,10.27
2024-02-08T03:54:27.833Z,10.90
2024-02-08T03:57:00.708Z,11.87
2024-02-08T03:59:32.075Z,16.43
2024-02-08T04:02:06.963Z,17.77
2024-02-08T04:04:51.394Z,14.93
2024-02-08T04:07:48.186Z,16.37
2024-02-08T04:10:31.262Z,16.63
2024-02-08T04:13:14.439Z,16.90
2024-02-08T04:16:12.029Z,16.40
2024-02-08T04:18:55.861Z,13.37
2024-02-08T04:21:47.974Z,14.60
2024-02-08T04:24:45.174Z,13.93
2024-02-08T04:27:30.375Z,17.23
2024-02-08T04:30:18.154Z,58.63
2024-02-08T04:33:03.049Z,24.73
2024-02-08T04:35:45.721Z,15.87
2024-02-08T04:38:28.186Z,14.23
2024-02-08T04:41:10.673Z,12.57
2024-02-08T04:44:01.984Z,15.57
2024-02-08T04:46:44.506Z,16.47
2024-02-08T04:49:30.467Z,14.00
2024-02-08T04:52:18.541Z,15.77
2024-02-08T04:54:48.650Z,15.63
2024-02-08T04:57:18.791Z,20.63
2024-02-08T04:59:54.441Z,15.70
2024-02-08T05:02:28.224Z,22.60
2024-02-08T05:04:58.399Z,16.00
2024-02-08T05:07:29.549Z,13.60
2024-02-08T05:10:00.395Z,16.57
2024-02-08T05:12:31.469Z,13.50
2024-02-08T05:15:04.155Z,13.87
2024-02-08T05:17:34.344Z,15.43
2024-02-08T05:20:05.584Z,16.67
2024-02-08T05:22:35.713Z,20.77
2024-02-08T05:25:11.527Z,12.20
2024-02-08T05:30:21.042Z,26.37
2024-02-08T05:32:53.117Z,15.00
2024-02-08T05:35:23.563Z,21.07
2024-02-08T05:37:55.050Z,11.87
2024-02-08T05:40:25.201Z,16.60
2024-02-08T05:42:56.025Z,13.53
2024-02-08T05:45:32.255Z,15.87
2024-02-08T05:48:07.654Z,15.90
2024-02-08T05:50:38.231Z,20.23
2024-02-08T05:53:10.657Z,13.47
2024-02-08T05:55:41.599Z,13.33
2024-02-08T05:58:17.888Z,18.30
2024-02-08T06:00:54.715Z,16.30
2024-02-08T06:03:35.502Z,14.60
2024-02-08T06:06:17.586Z,19.53
2024-02-08T06:08:48.120Z,16.23
2024-02-08T06:11:21.523Z,17.10
2024-02-08T06:13:56.683Z,17.33
2024-02-08T06:16:47.000Z,19.50
2024-02-08T06:19:19.528Z,18.67
2024-02-08T06:21:56.015Z,13.97
2024-02-08T06:24:47.916Z,16.60
2024-02-08T06:27:25.004Z,17.63
2024-02-08T06:29:55.234Z,18.23
2024-02-08T06:32:35.268Z,13.03
2024-02-08T06:35:13.557Z,15.53
2024-02-08T06:37:45.877Z,19.60
2024-02-08T06:40:23.353Z,19.00
2024-02-08T06:43:11.922Z,16.53
2024-02-08T06:46:11.446Z,16.20
2024-02-08T06:48:50.792Z,17.87
2024-02-08T06:51:33.399Z,21.00
2024-02-08T06:54:16.012Z,17.77
2024-02-08T06:56:58.676Z,18.40
2024-02-08T06:59:41.193Z,18.07
2024-02-08T07:02:24.258Z,22.33
2024-02-08T07:05:13.095Z,21.93
2024-02-08T07:07:56.968Z,15.80
2024-02-08T07:10:43.614Z,21.00
2024-02-08T07:13:26.639Z,21.90
2024-02-08T07:16:09.544Z,18.60
2024-02-08T07:18:55.619Z,16.90
2024-02-08T07:21:47.393Z,18.30
2024-02-08T07:24:29.890Z,29.03
2024-02-08T07:27:12.650Z,21.73
2024-02-08T07:29:56.294Z,21.50
2024-02-08T07:32:38.738Z,23.63
2024-02-08T07:35:21.840Z,20.83
2024-02-08T07:37:54.645Z,22.60
2024-02-08T07:40:28.508Z,25.47
2024-02-08T07:43:12.297Z,17.97
2024-02-08T07:45:42.407Z,20.43
2024-02-08T07:48:14.745Z,15.73
2024-02-08T07:50:51.650Z,19.97
2024-02-08T07:53:35.799Z,17.57
2024-02-08T07:56:18.780Z,19.13
2024-02-08T07:58:50.240Z,14.93
2024-02-08T08:01:22.104Z,21.60
2024-02-08T08:03:58.225Z,22.60
2024-02-08T08:06:36.248Z,21.03
2024-02-08T08:09:22.464Z,19.93
2024-02-08T08:11:54.079Z,20.43
2024-02-08T08:14:43.064Z,18.77
2024-02-08T08:17:32.184Z,24.57
2024-02-08T08:20:18.021Z,23.27
2024-02-08T08:22:56.247Z,24.80
2024-02-08T08:25:54.669Z,21.87
2024-02-08T08:28:37.243Z,22.33
2024-02-08T08:31:36.630Z,23.23
2024-02-08T08:34:21.920Z,26.00
2024-02-08T08:37:04.769Z,20.03
2024-02-08T08:39:48.724Z,25.97
2024-02-08T08:42:25.653Z,26.90
2024-02-08T08:44:58.795Z,20.60
2024-02-08T08:47:29.840Z,21.47
2024-02-08T08:50:19.546Z,20.07
2024-02-08T08:52:51.151Z,22.83
2024-02-08T08:55:22.066Z,20.80
2024-02-08T08:58:01.926Z,25.50
2024-02-08T09:00:37.909Z,34.77
2024-02-08T09:03:11.928Z,26.80
2024-02-08T09:05:44.972Z,30.67
2024-02-08T09:08:23.697Z,29.10
2024-02-08T09:10:58.112Z,33.00
2024-02-08T09:13:31.501Z,27.77
2024-02-08T09:16:22.223Z,27.27
2024-02-08T09:19:04.858Z,38.83
2024-02-08T09:21:37.246Z,28.60
2024-02-08T09:24:12.558Z,31.10
2024-02-08T09:27:02.430Z,32.37
2024-02-08T09:29:40.418Z,35.40
2024-02-08T09:32:38.978Z,28.87
2024-02-08T09:35:14.152Z,32.27
2024-02-08T09:37:47.716Z,30.13
2024-02-08T09:40:44.042Z,35.80
2024-02-08T09:43:21.017Z,43.63
2024-02-08T09:46:07.294Z,42.23
2024-02-08T09:48:49.337Z,40.10
2024-02-08T09:51:27.210Z,39.73
2024-02-08T09:54:16.588Z,32.83
2024-02-08T09:56:51.738Z,33.67
2024-02-08T09:59:41.972Z,31.87
2024-02-08T10:02:26.036Z,32.97
2024-02-08T10:05:00.273Z,31.03
2024-02-08T10:07:35.997Z,26.40
2024-02-08T10:10:19.610Z,29.60
2024-02-08T10:13:05.766Z,28.57
2024-02-08T10:15:45.685Z,29.10
2024-02-08T10:18:24.777Z,31.93
2024-02-08T10:20:59.894Z,36.97
2024-02-08T10:23:37.493Z,32.40
2024-02-08T10:26:20.336Z,35.03
2024-02-08T10:28:55.930Z,39.07
2024-02-08T10:31:30.404Z,33.40
2024-02-08T10:34:24.896Z,32.83
2024-02-08T10:36:56.666Z,34.77
2024-02-08T10:39:33.799Z,33.53
2024-02-08T10:42:05.242Z,35.70
2024-02-08T10:44:36.952Z,32.40
2024-02-08T10:47:11.401Z,34.93
2024-02-08T10:49:51.797Z,32.13
2024-02-08T10:52:23.995Z,32.63
2024-02-08T10:54:57.204Z,32.00
2024-02-08T10:57:41.487Z,34.50
2024-02-08T11:00:28.983Z,33.90
2024-02-08T11:03:10.280Z,35.57
2024-02-08T11:05:50.672Z,31.80
2024-02-08T11:08:34.753Z,34.93
2024-02-08T11:11:11.667Z,45.33
2024-02-08T11:13:47.028Z,36.30
2024-02-08T11:16:24.623Z,34.07
2024-02-08T11:18:57.216Z,36.37
2024-02-08T11:21:44.256Z,34.70
2024-02-08T11:24:30.139Z,31.13
2024-02-08T11:27:04.320Z,32.47
2024-02-08T11:29:47.320Z,38.47
2024-02-08T11:32:20.258Z,32.33
2024-02-08T11:34:56.458Z,33.97
2024-02-08T11:37:39.940Z,32.43
2024-02-08T11:40:13.447Z,32.67
2024-02-08T11:42:43.830Z,31.63
2024-02-08T11:45:23.697Z,38.83
2024-02-08T11:47:59.757Z,34.33
2024-02-08T11:50:37.793Z,36.57
2024-02-08T11:53:10.999Z,40.63
2024-02-08T11:55:41.219Z,34.43
2024-02-08T11:58:13.298Z,35.30
2024-02-08T12:00:50.713Z,35.07
2024-02-08T12:03:22.061Z,30.33
2024-02-08T12:05:58.759Z,32.70
2024-02-08T12:08:37.732Z,35.37
2024-02-08T12:11:13.633Z,31.07
2024-02-08T12:13:46.540Z,33.63
2024-02-08T12:16:18.802Z,36.67
2024-02-08T12:18:49.059Z,39.03
2024-02-08T12:21:24.733Z,34.17
2024-02-08T12:23:59.099Z,36.67
2024-02-08T12:26:33.065Z,33.27
2024-02-08T12:29:07.899Z,36.30
2024-02-08T12:31:40.047Z,29.97
2024-02-08T12:34:10.598Z,34.93
2024-02-08T12:36:41.830Z,32.57
2024-02-08T12:39:21.872Z,34.57
2024-02-08T12:41:54.922Z,35.10
2024-02-08T12:44:26.030Z,32.37
2024-02-08T12:47:00.341Z,36.37
2024-02-08T12:49:35.101Z,33.37
2024-02-08T12:52:07.160Z,36.90
2024-02-08T12:54:39.967Z,29.97
2024-02-08T12:57:12.187Z,32.27
2024-02-08T12:59:44.262Z,31.10
2024-02-08T13:02:20.360Z,30.97
2024-02-08T13:04:52.265Z,34.77
2024-02-08T13:07:27.083Z,32.97
2024-02-08T13:10:16.486Z,32.57
2024-02-08T13:12:49.056Z,32.30
2024-02-08T13:15:24.501Z,32.83
2024-02-08T13:17:57.927Z,34.63
2024-02-08T13:20:28.823Z,31.37
2024-02-08T13:22:59.310Z,29.10
2024-02-08T13:25:32.075Z,36.53
2024-02-08T13:28:03.754Z,31.03
2024-02-08T13:30:38.171Z,27.60
2024-02-08T13:33:12.633Z,31.87
2024-02-08T13:35:47.430Z,37.37
2024-02-08T13:38:23.043Z,34.20
2024-02-08T13:41:00.967Z,29.37
2024-02-08T13:43:32.325Z,29.03
2024-02-08T13:46:03.216Z,32.33
2024-02-08T13:48:33.509Z,30.73
2024-02-08T13:53:52.081Z,36.30
2024-02-08T13:56:24.771Z,35.63
2024-02-08T13:58:56.749Z,31.33
2024-02-08T14:01:27.738Z,35.93
2024-02-08T14:04:08.477Z,32.30
2024-02-08T14:06:42.654Z,28.43
2024-02-08T14:09:25.285Z,26.93
2024-02-08T14:12:00.255Z,35.07
2024-02-08T14:14:42.045Z,32.90
2024-02-08T14:17:12.682Z,37.53
2024-02-08T14:19:45.239Z,33.87
2024-02-08T14:22:17.898Z,39.33
2024-02-08T14:24:55.251Z,27.77
2024-02-08T14:27:29.875Z,32.13
2024-02-08T14:30:06.822Z,34.60
2024-02-08T14:32:37.228Z,29.60
2024-02-08T14:35:18.056Z,30.13
2024-02-08T14:37:48.904Z,27.40
2024-02-08T14:40:19.330Z,35.00
2024-02-08T14:42:52.047Z,36.90
2024-02-08T14:45:26.076Z,26.03
2024-02-08T14:48:01.894Z,31.63
2024-02-08T14:50:44.262Z,29.30
2024-02-08T14:53:14.513Z,29.40
2024-02-08T14:55:46.786Z,32.40
2024-02-08T14:58:32.038Z,27.20
2024-02-08T15:01:09.605Z,31.37
2024-02-08T15:03:40.116Z,30.50
2024-02-08T15:06:31.268Z,31.60
2024-02-08T15:09:26.492Z,30.30
2024-02-08T15:11:59.379Z,29.97
2024-02-08T15:14:37.177Z,29.13
2024-02-08T15:17:25.075Z,29.30
2024-02-08T15:20:01.108Z,27.80
2024-02-08T15:22:48.158Z,24.70
2024-02-08T15:25:19.398Z,23.17
2024-02-08T15:27:54.635Z,26.93
2024-02-08T15:30:38.284Z,25.13
2024-02-08T15:33:18.537Z,25.97
2024-02-08T15:36:01.125Z,28.47
2024-02-08T15:38:46.643Z,29.57
2024-02-08T15:41:21.072Z,29.93
2024-02-08T15:43:49.968Z,30.87
2024-02-08T15:46:29.622Z,29.23
2024-02-08T15:49:01.581Z,28.60
2024-02-08T15:51:38.487Z,28.87
2024-02-08T15:54:24.508Z,32.30
2024-02-08T15:56:57.564Z,28.30
2024-02-08T15:59:29.044Z,27.90
2024-02-08T16:01:59.679Z,26.43
2024-02-08T16:04:46.782Z,32.20
2024-02-08T16:07:20.669Z,33.53
2024-02-08T16:09:51.514Z,36.87
2024-02-08T16:12:38.172Z,31.60
2024-02-08T16:15:09.776Z,36.13
2024-02-08T16:17:59.767Z,34.13
2024-02-08T16:20:40.189Z,33.77
2024-02-08T16:23:17.510Z,34.90
2024-02-08T16:26:07.667Z,32.67
2024-02-08T16:28:47.167Z,33.30
2024-02-08T16:31:33.197Z,27.73
2024-02-08T16:34:19.954Z,32.27
2024-02-08T16:36:53.349Z,31.80
2024-02-08T16:39:35.389Z,32.43
2024-02-08T16:42:19.520Z,35.90
2024-02-08T16:44:58.332Z,31.43
2024-02-08T16:47:36.110Z,34.23
2024-02-08T16:50:19.308Z,34.27
2024-02-08T16:52:59.493Z,32.30
2024-02-08T16:55:38.467Z,37.13
2024-02-08T16:58:30.144Z,29.93
2024-02-08T17:01:06.763Z,29.97
2024-02-08T17:03:49.550Z,29.30
2024-02-08T17:06:28.449Z,29.17
2024-02-08T17:09:17.494Z,29.97
2024-02-08T17:12:00.082Z,32.47
2024-02-08T17:14:48.275Z,28.40
2024-02-08T17:17:36.920Z,31.27
2024-02-08T17:20:24.063Z,31.80
2024-02-08T17:23:17.786Z,30.03
2024-02-08T17:25:57.023Z,26.97
2024-02-08T17:28:38.909Z,32.20
2024-02-08T17:31:23.546Z,25.43
2024-02-08T17:33:58.214Z,28.23
2024-02-08T17:36:32.395Z,29.07
2024-02-08T17:39:12.326Z,35.83
2024-02-08T17:41:44.512Z,33.90
2024-02-08T17:44:17.733Z,28.50
2024-02-08T17:46:54.382Z,28.10
2024-02-08T17:49:26.623Z,31.07
2024-02-08T17:51:58.199Z,28.20
2024-02-08T17:54:33.697Z,27.00
2024-02-08T17:57:13.077Z,18.97
2024-02-08T17:59:47.031Z,9.73
2024-02-08T18:02:24.486Z,8.57
2024-02-08T18:04:54.867Z,10.23
2024-02-08T18:07:25.093Z,9.67
2024-02-08T18:10:12.531Z,15.47
2024-02-08T18:12:43.451Z,10.17
2024-02-08T18:15:23.528Z,23.83
2024-02-08T18:17:57.079Z,8.40
2024-02-08T18:20:31.734Z,11.80
2024-02-08T18:23:04.107Z,9.43
2024-02-08T18:25:39.393Z,10.70
2024-02-08T18:28:11.314Z,9.37
2024-02-08T18:30:46.773Z,12.77
2024-02-08T18:33:18.723Z,9.23
2024-02-08T18:35:54.633Z,10.40
2024-02-08T18:38:27.296Z,10.90
2024-02-08T18:41:02.759Z,12.90
2024-02-08T18:43:34.916Z,7.67
2024-02-08T18:46:07.580Z,5.97
2024-02-08T18:48:44.214Z,12.03
2024-02-08T18:51:17.291Z,31.70
2024-02-08T18:53:51.560Z,8.33
2024-02-08T18:56:27.224Z,8.37
2024-02-08T18:59:01.230Z,7.80
2024-02-08T19:01:31.671Z,10.50
2024-02-08T19:04:04.230Z,9.87
2024-02-08T19:06:35.196Z,8.47
2024-02-08T19:09:08.534Z,8.17
2024-02-08T19:11:46.117Z,13.67
2024-02-08T19:14:17.609Z,17.23
2024-02-08T19:16:47.855Z,7.47
2024-02-08T19:19:24.726Z,7.00
2024-02-08T19:21:55.453Z,10.50
2024-02-08T19:24:30.124Z,5.03
2024-02-08T19:27:03.114Z,5.00
2024-02-08T19:29:34.102Z,6.00
2024-02-08T19:32:08.818Z,6.20
2024-02-08T19:34:41.212Z,4.87
2024-02-08T19:37:13.422Z,7.50
2024-02-08T19:39:43.533Z,6.97
2024-02-08T19:42:23.604Z,4.60
2024-02-08T19:44:57.670Z,4.50
2024-02-08T19:47:31.270Z,3.80
2024-02-08T19:50:07.308Z,4.77
2024-02-08T19:52:41.825Z,4.73
2024-02-08T19:55:24.692Z,6.87
2024-02-08T19:58:14.330Z,6.07
2024-02-08T20:00:50.136Z,6.20
2024-02-08T20:03:28.397Z,4.77
2024-02-08T20:06:02.059Z,3.93
2024-02-08T20:08:32.685Z,4.00
2024-02-08T20:11:12.739Z,5.83
2024-02-08T20:13:47.653Z,4.53
2024-02-08T20:16:28.102Z,3.03
2024-02-08T20:18:59.584Z,3.73
2024-02-08T20:21:32.943Z,5.97
2024-02-08T20:24:06.597Z,5.27
2024-02-08T20:26:39.357Z,15.83
2024-02-08T20:29:16.072Z,6.00
2024-02-08T20:31:51.070Z,8.83
2024-02-08T20:34:21.195Z,5.57
2024-02-08T20:36:51.899Z,3.60
2024-02-08T20:39:23.459Z,3.53
2024-02-08T20:41:55.063Z,4.77
2024-02-08T20:44:30.706Z,4.70
2024-02-08T20:47:02.534Z,5.40
2024-02-08T20:49:36.161Z,2.93
2024-02-08T20:52:08.303Z,4.03
2024-02-08T20:54:41.874Z,4.97
2024-02-08T20:57:12.486Z,4.23
2024-02-08T20:59:47.901Z,3.00
2024-02-08T21:02:20.114Z,3.23
2024-02-08T21:04:50.768Z,5.40
2024-02-08T21:07:21.932Z,5.50
2024-02-08T21:09:54.505Z,4.00
2024-02-08T21:12:24.733Z,6.93
2024-02-08T21:14:59.921Z,7.27
2024-02-08T21:17:30.489Z,3.70
2024-02-08T21:20:00.844Z,3.43
2024-02-08T21:22:31.189Z,3.33
2024-02-08T21:25:01.575Z,4.40
2024-02-08T21:27:34.977Z,4.97
2024-02-08T21:30:12.926Z,3.10
2024-02-08T21:32:48.044Z,5.63
2024-02-08T21:35:18.826Z,4.00
2024-02-08T21:37:48.959Z,4.90
2024-02-08T21:40:19.224Z,4.80
2024-02-08T21:42:51.364Z,3.97
2024-02-08T21:45:24.506Z,4.87
2024-02-08T21:47:54.631Z,3.93
2024-02-08T21:50:24.908Z,5.53
2024-02-08T21:52:55.212Z,4.27
2024-02-08T21:55:26.109Z,3.90
2024-02-08T21:57:56.251Z,3.90
2024-02-08T22:00:33.806Z,4.20
2024-02-08T22:03:04.340Z,3.47
2024-02-08T22:05:37.030Z,4.23
2024-02-08T22:08:07.865Z,3.33
2024-02-08T22:10:40.578Z,3.43
2024-02-08T22:13:11.923Z,3.17
2024-02-08T22:15:44.843Z,3.73
2024-02-08T22:18:16.130Z,2.90
2024-02-08T22:20:46.381Z,3.80
2024-02-08T22:23:16.593Z,3.23
2024-02-08T22:25:47.777Z,3.20
2024-02-08T22:28:18.738Z,4.53
2024-02-08T22:30:51.597Z,2.83
2024-02-08T22:33:22.716Z,2.50
2024-02-08T22:35:53.977Z,3.00
2024-02-08T22:38:24.085Z,2.93
2024-02-08T22:40:59.590Z,2.60
2024-02-08T22:43:29.946Z,3.00
2024-02-08T22:46:02.686Z,2.53
2024-02-08T22:48:32.763Z,2.30
2024-02-08T22:51:03.396Z,3.33
2024-02-08T22:53:35.670Z,2.50
2024-02-08T22:56:07.265Z,2.50
2024-02-08T22:58:37.400Z,2.60
2024-02-08T23:01:24.061Z,2.60
2024-02-08T23:03:54.583Z,3.00
2024-02-08T23:06:24.842Z,3.07
2024-02-08T23:08:55.922Z,3.07
2024-02-08T23:11:26.035Z,3.20
2024-02-08T23:13:56.126Z,3.20
2024-02-08T23:16:31.485Z,3.33
2024-02-08T23:19:03.167Z,3.30
2024-02-08T23:21:34.436Z,3.70
2024-02-08T23:24:14.319Z,3.37
2024-02-08T23:26:45.043Z,3.67
2024-02-08T23:29:15.089Z,4.17
2024-02-08T23:31:52.674Z,4.17
2024-02-08T23:34:25.616Z,3.80
2024-02-08T23:36:58.686Z,3.83
2024-02-08T23:39:29.424Z,3.90
2024-02-08T23:42:00.579Z,3.80
2024-02-08T23:44:31.328Z,3.57
2024-02-08T23:47:06.629Z,3.37
2024-02-08T23:49:37.110Z,4.07
2024-02-08T23:52:13.515Z,3.50
2024-02-08T23:54:45.077Z,4.67
2024-02-08T23:57:16.388Z,4.57
2024-02-08T23:59:51.528Z,4.33
